Time;durP1;ratioP1;P1;durP2;ratioP2;P2;SDS_P1;SDS_P2;PMS_P1;PMS_P2;Temp;Humidity;BMP_temperature;BMP_pressure;BME280_temperature;BME280_humidity;BME280_pressure;Samples;Min_cycle;Max_cycle;Signal;HPM_P1;HPM_P2
2022/12/05 00:01:55;;;;;;;0.73;0.50;;;2.70;99.90;;;;;;5134700;27;20446;-81
2022/12/05 00:04:22;;;;;;;0.40;0.30;;;2.60;99.90;;;;;;5134100;27;20453;-81
2022/12/05 00:06:48;;;;;;;0.40;0.30;;;2.70;99.90;;;;;;5134204;27;20474;-81
2022/12/05 00:09:15;;;;;;;2.07;0.60;;;2.70;99.90;;;;;;5134648;27;20447;-81
2022/12/05 00:11:44;;;;;;;0.30;0.30;;;2.70;99.90;;;;;;5134576;27;20447;-81
2022/12/05 00:14:12;;;;;;;0.30;0.30;;;2.70;99.90;;;;;;5134501;27;20447;-81
2022/12/05 00:16:41;;;;;;;0.30;0.30;;;2.70;99.90;;;;;;5134107;27;20467;-81
2022/12/05 00:19:11;;;;;;;0.43;0.43;;;2.60;99.90;;;;;;5134476;27;20461;-81
2022/12/05 00:21:38;;;;;;;0.80;0.40;;;2.60;99.90;;;;;;5134117;27;20474;-81
2022/12/05 00:24:07;;;;;;;0.30;0.20;;;2.60;99.90;;;;;;5134431;27;20438;-81
2022/12/05 00:26:35;;;;;;;1.07;1.07;;;2.70;99.90;;;;;;5134247;27;20838;-80
2022/12/05 00:29:02;;;;;;;0.50;0.50;;;2.70;99.90;;;;;;5134374;27;20439;-81
2022/12/05 00:31:29;;;;;;;0.30;0.30;;;2.80;99.90;;;;;;5134370;27;20455;-81
2022/12/05 00:33:56;;;;;;;0.40;0.30;;;2.80;99.90;;;;;;5134366;27;20453;-81
2022/12/05 00:36:26;;;;;;;0.60;0.50;;;2.70;99.90;;;;;;5134237;27;20454;-81
2022/12/05 00:38:54;;;;;;;0.40;0.40;;;2.80;99.90;;;;;;5134254;27;20446;-80
2022/12/05 00:41:23;;;;;;;0.30;0.30;;;2.80;99.90;;;;;;5134285;27;20434;-81
2022/12/05 00:43:51;;;;;;;0.40;0.40;;;2.80;99.90;;;;;;5134247;27;20446;-81
2022/12/05 00:46:20;;;;;;;0.30;0.30;;;2.80;99.90;;;;;;5134100;27;20478;-81
2022/12/05 00:48:48;;;;;;;2.47;0.70;;;2.80;99.90;;;;;;5134221;27;20443;-81
2022/12/05 00:51:17;;;;;;;0.40;0.40;;;2.80;99.90;;;;;;5133852;27;20946;-81
2022/12/05 00:53:46;;;;;;;0.30;0.23;;;2.80;99.90;;;;;;5134142;27;20454;-81
2022/12/05 00:56:16;;;;;;;0.30;0.30;;;2.80;99.90;;;;;;5134044;27;20470;-81
2022/12/05 00:58:43;;;;;;;1.90;0.50;;;2.80;99.90;;;;;;5134056;27;20443;-81
2022/12/05 01:01:12;;;;;;;0.50;0.33;;;2.80;99.90;;;;;;5134084;27;20438;-81
2022/12/05 01:03:39;;;;;;;0.63;0.40;;;2.80;99.90;;;;;;5134057;27;20443;-81
2022/12/05 01:06:07;;;;;;;1.13;0.50;;;2.80;99.90;;;;;;5133916;27;20482;-81
2022/12/05 01:08:35;;;;;;;1.63;1.53;;;2.80;99.90;;;;;;5134004;27;20447;-81
2022/12/05 01:11:04;;;;;;;0.30;0.20;;;2.70;99.90;;;;;;5134026;27;20812;-82
2022/12/05 01:13:31;;;;;;;0.30;0.30;;;2.70;99.90;;;;;;5133991;27;20453;-81
2022/12/05 01:15:58;;;;;;;0.97;0.40;;;2.70;99.90;;;;;;5134288;27;20467;-81
2022/12/05 01:18:26;;;;;;;1.30;0.60;;;2.60;99.90;;;;;;5137639;27;20453;-81
2022/12/05 01:20:53;;;;;;;0.40;0.30;;;2.70;99.90;;;;;;5137741;27;20474;-81
2022/12/05 01:23:22;;;;;;;0.60;0.43;;;2.70;99.90;;;;;;5137773;27;20442;-81
2022/12/05 01:25:51;;;;;;;0.53;0.40;;;2.80;99.90;;;;;;5137531;27;20462;-81
2022/12/05 01:28:19;;;;;;;0.40;0.40;;;2.70;99.90;;;;;;5137397;27;20449;-81
2022/12/05 01:30:48;;;;;;;0.40;0.40;;;2.70;99.90;;;;;;5137633;27;20441;-82
2022/12/05 01:33:16;;;;;;;1.57;1.47;;;2.60;99.90;;;;;;5137547;27;20624;-81
2022/12/05 01:35:43;;;;;;;7.10;0.77;;;2.50;99.90;;;;;;5137440;27;20615;-81
2022/12/05 01:38:11;;;;;;;0.90;0.90;;;2.40;99.90;;;;;;5138097;27;20446;-81
2022/12/05 01:40:39;;;;;;;0.40;0.40;;;2.50;99.90;;;;;;5137423;27;20472;-81
2022/12/05 01:43:14;;;;;;;0.30;0.30;;;2.40;99.90;;;;;;5137348;27;20442;-81
2022/12/05 01:45:45;;;;;;;0.30;0.30;;;2.40;99.90;;;;;;5136915;27;20995;-81
2022/12/05 01:48:16;;;;;;;1.37;0.50;;;2.30;99.90;;;;;;5137308;27;20514;-81
2022/12/05 01:50:44;;;;;;;0.30;0.30;;;2.30;99.90;;;;;;5137252;27;20529;-81
2022/12/05 01:53:11;;;;;;;0.30;0.30;;;2.40;99.90;;;;;;5137261;27;20529;-82
2022/12/05 01:55:38;;;;;;;0.60;0.60;;;2.40;99.90;;;;;;5137025;27;20500;-81
2022/12/05 01:58:07;;;;;;;0.30;0.30;;;2.40;99.90;;;;;;5136750;27;20949;-81
2022/12/05 02:00:34;;;;;;;0.80;0.40;;;2.50;99.90;;;;;;5137001;27;20439;-81
2022/12/05 02:03:11;;;;;;;1.67;0.50;;;2.50;99.90;;;;;;5137025;27;20450;-81
2022/12/05 02:05:38;;;;;;;0.30;0.20;;;2.50;99.90;;;;;;5136887;27;20471;-81
2022/12/05 02:08:08;;;;;;;0.30;0.20;;;2.50;99.90;;;;;;5136831;27;20482;-81
2022/12/05 02:10:38;;;;;;;1.30;1.17;;;2.50;99.90;;;;;;5136529;27;20953;-80
2022/12/05 02:13:15;;;;;;;0.30;0.30;;;2.50;99.90;;;;;;5136510;27;20427;-81
2022/12/05 02:15:47;;;;;;;0.67;0.67;;;2.50;99.90;;;;;;5136398;27;21018;-81
2022/12/05 02:18:28;;;;;;;1.03;0.83;;;2.50;99.90;;;;;;5136745;27;20427;-81
2022/12/05 02:21:07;;;;;;;0.70;0.53;;;2.50;99.90;;;;;;5136339;27;20479;-81
2022/12/05 02:23:51;;;;;;;2.90;0.80;;;2.60;99.90;;;;;;5136614;27;20507;-81
2022/12/05 02:26:47;;;;;;;0.70;0.43;;;2.60;99.90;;;;;;5136422;27;20492;-81
2022/12/05 02:29:50;;;;;;;0.30;0.30;;;2.50;99.90;;;;;;5133914;27;20471;-81
2022/12/05 02:32:26;;;;;;;2.40;2.20;;;2.50;99.90;;;;;;5136462;27;20479;-81
2022/12/05 02:35:02;;;;;;;0.30;0.30;;;2.60;99.90;;;;;;5136334;27;20466;-81
2022/12/05 02:37:32;;;;;;;0.30;0.30;;;2.50;99.90;;;;;;5136356;27;20431;-81
2022/12/05 02:40:04;;;;;;;0.30;0.30;;;2.50;99.90;;;;;;5136302;27;20438;-81
2022/12/05 02:42:36;;;;;;;1.17;1.17;;;2.60;99.90;;;;;;5136257;27;20427;-81
2022/12/05 02:45:08;;;;;;;0.40;0.40;;;2.60;99.90;;;;;;5136124;27;20724;-81
2022/12/05 02:47:39;;;;;;;0.40;0.30;;;2.70;99.90;;;;;;5136122;27;20519;-81
2022/12/05 02:50:08;;;;;;;0.30;0.30;;;2.60;99.90;;;;;;5135752;27;20801;-81
2022/12/05 02:52:36;;;;;;;0.40;0.30;;;2.60;99.90;;;;;;5135676;27;20823;-81
2022/12/05 02:55:04;;;;;;;1.83;0.53;;;2.60;99.90;;;;;;5135876;27;20463;-81
2022/12/05 02:57:32;;;;;;;2.10;0.60;;;2.60;99.90;;;;;;5135879;27;20439;-82
2022/12/05 02:59:59;;;;;;;0.73;0.73;;;2.70;99.90;;;;;;5135842;27;20446;-81
2022/12/05 03:02:30;;;;;;;0.47;0.47;;;2.80;99.90;;;;;;5135821;27;20450;-81
2022/12/05 03:05:04;;;;;;;2.90;0.50;;;2.70;99.90;;;;;;5135757;27;20463;-82
2022/12/05 03:07:32;;;;;;;0.77;0.57;;;2.70;99.90;;;;;;5135760;27;20463;-81
2022/12/05 03:10:04;;;;;;;0.30;0.27;;;2.80;99.90;;;;;;5135701;27;20881;-81
2022/12/05 03:12:36;;;;;;;0.53;0.40;;;2.80;99.90;;;;;;5135694;27;20435;-81
2022/12/05 03:15:06;;;;;;;1.70;0.83;;;2.80;99.90;;;;;;5135572;27;20471;-81
2022/12/05 03:17:38;;;;;;;1.57;0.70;;;2.80;99.90;;;;;;5135608;27;20431;-81
2022/12/05 03:20:11;;;;;;;0.60;0.50;;;2.80;99.90;;;;;;5135638;27;20439;-81
2022/12/05 03:22:43;;;;;;;0.40;0.40;;;2.80;99.90;;;;;;5135509;27;20435;-81
2022/12/05 03:25:10;;;;;;;1.80;0.60;;;2.80;99.90;;;;;;5135360;27;20458;-81
2022/12/05 03:27:46;;;;;;;0.30;0.30;;;2.90;99.90;;;;;;5135289;27;20565;-81
2022/12/05 03:30:16;;;;;;;1.00;0.77;;;2.90;99.90;;;;;;5135044;27;20897;-81
2022/12/05 03:32:49;;;;;;;0.50;0.50;;;2.90;99.90;;;;;;5136056;27;20515;-81
2022/12/05 03:35:23;;;;;;;0.83;0.67;;;2.90;99.90;;;;;;5135169;27;20485;-81
2022/12/05 03:37:53;;;;;;;0.30;0.20;;;2.90;99.90;;;;;;5135220;27;20434;-81
2022/12/05 03:40:27;;;;;;;0.93;0.93;;;2.80;99.90;;;;;;5134453;27;20427;-81
2022/12/05 03:42:59;;;;;;;1.00;0.50;;;2.80;99.90;;;;;;5135086;27;20437;-81
2022/12/05 03:45:33;;;;;;;0.83;0.83;;;2.80;99.90;;;;;;5134640;27;20462;-81
2022/12/05 03:48:06;;;;;;;0.40;0.40;;;2.80;99.90;;;;;;5134940;27;20462;-81
2022/12/05 03:50:37;;;;;;;0.40;0.40;;;2.90;99.90;;;;;;5134981;27;20428;-81
2022/12/05 03:53:07;;;;;;;0.30;0.30;;;2.90;99.90;;;;;;5134891;27;20431;-81
2022/12/05 03:55:38;;;;;;;4.10;1.50;;;2.90;99.90;;;;;;5134840;27;20535;-80
2022/12/05 03:58:10;;;;;;;0.30;0.20;;;2.90;99.90;;;;;;5134513;27;20906;-81
2022/12/05 04:00:42;;;;;;;1.27;1.17;;;2.90;99.90;;;;;;5134786;27;20427;-81
2022/12/05 04:03:13;;;;;;;0.30;0.30;;;2.90;99.90;;;;;;5134798;27;20443;-81
2022/12/05 04:05:45;;;;;;;0.40;0.30;;;2.80;99.90;;;;;;5134749;27;20467;-81
2022/12/05 04:08:17;;;;;;;0.60;0.60;;;2.80;99.90;;;;;;5134647;27;20463;-82
2022/12/05 04:10:50;;;;;;;0.30;0.20;;;2.80;99.90;;;;;;5134661;27;20431;-82
2022/12/05 04:13:22;;;;;;;0.40;0.40;;;2.80;99.90;;;;;;5134665;27;20427;-82
2022/12/05 04:18:42;;;;;;;0.40;0.40;;;2.80;99.90;;;;;;5134663;27;20426;-81
2022/12/05 04:26:42;;;;;;;0.40;0.40;;;2.80;99.90;;;;;;5133701;27;20976;-81
2022/12/05 04:29:17;;;;;;;0.30;0.30;;;2.80;99.90;;;;;;5134426;27;20431;-82
2022/12/05 04:31:49;;;;;;;0.60;0.60;;;2.90;99.90;;;;;;5134439;27;20429;-81
2022/12/05 04:34:19;;;;;;;1.13;0.40;;;2.80;99.90;;;;;;5134369;27;20435;-82
2022/12/05 04:36:54;;;;;;;0.70;0.70;;;2.80;99.90;;;;;;5134343;27;20427;-82
2022/12/05 04:39:27;;;;;;;1.47;0.60;;;2.70;99.90;;;;;;5134060;27;20434;-82
2022/12/05 04:41:57;;;;;;;0.40;0.30;;;2.70;99.90;;;;;;5134328;27;20442;-82
2022/12/05 04:44:29;;;;;;;0.70;0.50;;;2.70;99.90;;;;;;5133852;27;20455;-82
2022/12/05 04:46:59;;;;;;;0.30;0.30;;;2.70;99.90;;;;;;5134232;27;20473;-81
2022/12/05 04:49:28;;;;;;;0.90;0.57;;;2.70;99.90;;;;;;5133872;27;20938;-82
2022/12/05 04:52:00;;;;;;;0.30;0.30;;;2.70;99.90;;;;;;5137662;27;20446;-82
2022/12/05 04:54:30;;;;;;;0.33;0.33;;;2.60;99.90;;;;;;5138018;27;20430;-82
2022/12/05 04:57:09;;;;;;;1.17;0.50;;;2.60;99.90;;;;;;5138029;27;20427;-82
2022/12/05 04:59:36;;;;;;;0.50;0.37;;;2.60;99.90;;;;;;5138301;27;20448;-82
2022/12/05 05:02:07;;;;;;;0.53;0.47;;;2.60;99.90;;;;;;5137915;27;20443;-82
2022/12/05 05:04:37;;;;;;;1.80;1.00;;;2.60;99.90;;;;;;5138091;27;20435;-82
2022/12/05 05:07:12;;;;;;;1.00;0.50;;;2.60;99.90;;;;;;5137734;27;21043;-82
2022/12/05 05:09:40;;;;;;;0.30;0.30;;;2.60;99.90;;;;;;5138087;27;20758;-81
2022/12/05 05:12:07;;;;;;;0.30;0.30;;;2.60;99.90;;;;;;5137963;27;20438;-81
2022/12/05 05:14:34;;;;;;;1.13;1.00;;;2.70;99.90;;;;;;5137525;27;20991;-82
2022/12/05 05:17:01;;;;;;;0.40;0.40;;;2.70;99.90;;;;;;5137888;27;20446;-82
2022/12/05 05:19:28;;;;;;;0.40;0.40;;;2.70;99.90;;;;;;5137523;27;20956;-82
2022/12/05 05:21:54;;;;;;;0.30;0.30;;;2.80;99.90;;;;;;5137177;27;20505;-82
2022/12/05 05:24:25;;;;;;;0.60;0.60;;;2.90;99.90;;;;;;5137657;27;20453;-82
2022/12/05 05:26:52;;;;;;;0.30;0.20;;;3.00;99.90;;;;;;5137708;27;20474;-82
2022/12/05 05:29:19;;;;;;;1.27;1.23;;;3.00;99.90;;;;;;5137445;27;20937;-82
2022/12/05 05:31:46;;;;;;;2.57;0.60;;;3.00;99.90;;;;;;5137625;27;20442;-82
2022/12/05 05:34:14;;;;;;;0.30;0.30;;;3.10;99.90;;;;;;5137577;27;20818;-81
2022/12/05 05:36:41;;;;;;;0.50;0.50;;;3.10;99.90;;;;;;5137437;27;20472;-82
2022/12/05 05:39:12;;;;;;;0.37;0.30;;;3.20;99.90;;;;;;5137425;27;20447;-82
2022/12/05 05:41:40;;;;;;;0.50;0.50;;;3.10;99.90;;;;;;5137433;27;20500;-82
2022/12/05 05:44:07;;;;;;;0.40;0.40;;;3.10;99.90;;;;;;5137335;27;20442;-82
2022/12/05 05:46:35;;;;;;;2.77;0.40;;;3.20;99.90;;;;;;5137238;27;20463;-82
2022/12/05 05:49:03;;;;;;;0.73;0.70;;;3.20;99.90;;;;;;5137221;27;20514;-82
2022/12/05 05:51:30;;;;;;;0.60;0.50;;;3.20;99.90;;;;;;5137223;27;20439;-82
2022/12/05 05:53:58;;;;;;;0.77;0.77;;;3.20;99.90;;;;;;5137228;27;20793;-82
2022/12/05 05:56:24;;;;;;;0.50;0.40;;;3.20;99.90;;;;;;5137059;27;20471;-82
2022/12/05 05:58:57;;;;;;;0.30;0.30;;;3.20;99.90;;;;;;5137152;27;20446;-82
2022/12/05 06:01:23;;;;;;;0.60;0.60;;;3.20;99.90;;;;;;5136482;27;20431;-82
2022/12/05 06:03:51;;;;;;;2.70;0.70;;;3.20;99.90;;;;;;5136562;27;20451;-82
2022/12/05 06:06:18;;;;;;;0.30;0.30;;;3.20;99.90;;;;;;5136872;27;20462;-82
2022/12/05 06:08:46;;;;;;;0.50;0.40;;;3.20;99.90;;;;;;5136743;27;20498;-82
2022/12/05 06:11:15;;;;;;;0.40;0.30;;;3.20;99.90;;;;;;5136511;27;20489;-82
2022/12/05 06:13:42;;;;;;;0.30;0.30;;;3.20;99.90;;;;;;5136675;27;20957;-82
2022/12/05 06:16:13;;;;;;;8.73;1.23;;;3.20;99.90;;;;;;5136658;27;20470;-82
2022/12/05 06:18:40;;;;;;;0.40;0.40;;;3.20;99.90;;;;;;5136734;27;20534;-82
2022/12/05 06:21:07;;;;;;;1.70;0.77;;;3.30;99.90;;;;;;5136254;27;20486;-82
2022/12/05 06:23:35;;;;;;;1.73;1.07;;;3.20;99.90;;;;;;5136318;27;20446;-82
2022/12/05 06:26:02;;;;;;;0.43;0.43;;;3.20;99.90;;;;;;5136507;27;20471;-82
2022/12/05 06:28:28;;;;;;;0.60;0.60;;;3.20;99.90;;;;;;5136471;27;20527;-82
2022/12/05 06:30:55;;;;;;;1.17;0.50;;;3.20;99.90;;;;;;5136134;27;20453;-82
2022/12/05 06:33:23;;;;;;;1.80;0.40;;;3.20;99.90;;;;;;5136162;27;20930;-82
2022/12/05 06:36:01;;;;;;;0.30;0.30;;;3.20;99.90;;;;;;5136289;27;20461;-82
2022/12/05 06:38:28;;;;;;;0.30;0.20;;;3.20;99.90;;;;;;5136952;27;20427;-82
2022/12/05 06:40:55;;;;;;;0.93;0.93;;;3.20;99.90;;;;;;5136269;27;20451;-82
2022/12/05 06:43:22;;;;;;;2.77;1.17;;;3.10;99.90;;;;;;5135968;27;20820;-82
2022/12/05 06:45:48;;;;;;;0.40;0.40;;;3.20;99.90;;;;;;5135819;27;20989;-82
2022/12/05 06:48:15;;;;;;;0.70;0.70;;;3.20;99.90;;;;;;5135750;27;20490;-82
2022/12/05 06:50:50;;;;;;;1.27;0.50;;;3.20;99.90;;;;;;5136093;27;20447;-82
2022/12/05 06:53:16;;;;;;;1.07;1.07;;;3.20;99.90;;;;;;5135786;27;20932;-82
2022/12/05 06:55:43;;;;;;;0.40;0.40;;;3.20;99.90;;;;;;5135938;27;20463;-82
2022/12/05 06:58:10;;;;;;;2.00;0.50;;;3.20;99.90;;;;;;5135886;27;20435;-82
2022/12/05 07:03:17;;;;;;;0.97;0.60;;;3.30;99.90;;;;;;5112498;27;20975;-82
2022/12/05 07:05:44;;;;;;;0.60;0.40;;;3.40;99.90;;;;;;5135650;27;20471;-82
2022/12/05 07:08:12;;;;;;;3.50;0.50;;;3.40;99.90;;;;;;5135383;27;21011;-82
2022/12/05 07:10:39;;;;;;;0.30;0.30;;;3.40;99.90;;;;;;5135411;27;20921;-82
2022/12/05 07:13:06;;;;;;;0.40;0.30;;;3.40;99.90;;;;;;5135012;27;20438;-82
2022/12/05 07:15:32;;;;;;;0.60;0.27;;;3.40;99.90;;;;;;5134893;27;20467;-82
2022/12/05 07:17:59;;;;;;;0.30;0.30;;;3.30;99.90;;;;;;5135535;27;20443;-82
2022/12/05 07:20:26;;;;;;;0.50;0.43;;;3.40;99.90;;;;;;5134998;27;20481;-82
2022/12/05 07:22:53;;;;;;;0.40;0.33;;;3.30;99.90;;;;;;5135508;27;20439;-82
2022/12/05 07:25:22;;;;;;;0.40;0.30;;;3.40;99.90;;;;;;5135359;27;20459;-82
2022/12/05 07:27:48;;;;;;;0.30;0.20;;;3.50;99.90;;;;;;5135254;27;20485;-82
2022/12/05 07:30:15;;;;;;;0.80;0.80;;;3.50;99.90;;;;;;5135027;27;20949;-82
2022/12/05 07:32:42;;;;;;;2.10;0.40;;;3.60;99.90;;;;;;5135243;27;20451;-82
2022/12/05 07:35:09;;;;;;;0.90;0.90;;;3.60;99.90;;;;;;5135168;27;20827;-82
2022/12/05 07:37:36;;;;;;;0.30;0.30;;;3.60;99.90;;;;;;5135103;27;20439;-82
2022/12/05 07:40:03;;;;;;;0.87;0.87;;;3.70;99.90;;;;;;5134213;27;20503;-82
2022/12/05 07:42:31;;;;;;;0.50;0.50;;;3.80;99.90;;;;;;5134135;27;20816;-82
2022/12/05 07:44:58;;;;;;;0.60;0.60;;;3.90;99.90;;;;;;5134422;27;20467;-82
2022/12/05 07:47:25;;;;;;;0.30;0.30;;;4.00;99.90;;;;;;5134958;27;20431;-82
2022/12/05 07:49:51;;;;;;;0.83;0.83;;;4.00;99.90;;;;;;5133281;27;20443;-82
2022/12/05 07:52:18;;;;;;;0.47;0.47;;;4.10;99.90;;;;;;5135047;27;20453;-82
2022/12/05 07:54:45;;;;;;;0.97;0.30;;;4.10;99.90;;;;;;5135036;27;20462;-82
2022/12/05 07:57:12;;;;;;;0.30;0.30;;;4.10;99.90;;;;;;5134718;27;20817;-82
2022/12/05 07:59:40;;;;;;;3.00;0.57;;;4.00;99.90;;;;;;5134621;27;20953;-82
2022/12/05 08:02:08;;;;;;;0.73;0.73;;;4.00;99.90;;;;;;5134782;27;20449;-82
2022/12/05 08:04:35;;;;;;;0.57;0.37;;;4.00;99.90;;;;;;5134712;27;20446;-82
2022/12/05 08:07:01;;;;;;;1.03;0.83;;;4.00;99.90;;;;;;5134525;27;20450;-82
2022/12/05 08:09:28;;;;;;;0.40;0.30;;;4.00;99.90;;;;;;5134589;27;20865;-83
2022/12/05 08:11:55;;;;;;;0.30;0.30;;;4.10;99.90;;;;;;5134606;27;20443;-82
2022/12/05 08:14:22;;;;;;;0.50;0.50;;;4.10;99.90;;;;;;5134513;27;20439;-82
2022/12/05 08:16:50;;;;;;;0.63;0.63;;;4.20;99.90;;;;;;5134559;27;20444;-82
2022/12/05 08:19:16;;;;;;;1.60;0.60;;;4.30;99.90;;;;;;5134528;27;20439;-81
2022/12/05 08:21:43;;;;;;;0.40;0.40;;;4.30;99.90;;;;;;5134074;27;21000;-82
2022/12/05 08:24:11;;;;;;;0.50;0.50;;;4.30;99.90;;;;;;5134463;27;20450;-82
2022/12/05 08:26:39;;;;;;;1.27;0.60;;;4.30;99.90;;;;;;5134373;27;20900;-83
2022/12/05 08:29:08;;;;;;;2.13;1.00;;;4.30;99.90;;;;;;5134304;27;20486;-83
2022/12/05 08:31:39;;;;;;;0.40;0.30;;;4.40;99.90;;;;;;5134409;27;20443;-84
2022/12/05 08:34:07;;;;;;;0.47;0.40;;;4.30;99.90;;;;;;5134431;27;20440;-84
2022/12/05 08:36:34;;;;;;;2.10;0.40;;;4.30;99.90;;;;;;5133940;27;20470;-83
2022/12/05 08:39:04;;;;;;;0.60;0.40;;;4.40;99.90;;;;;;5134316;27;20442;-83
2022/12/05 08:41:31;;;;;;;0.40;0.33;;;4.40;99.90;;;;;;5134073;27;20960;-83
2022/12/05 08:44:01;;;;;;;0.30;0.30;;;4.40;99.90;;;;;;5134344;27;20450;-83
2022/12/05 08:46:29;;;;;;;1.50;0.80;;;4.40;99.90;;;;;;5134256;27;20475;-83
2022/12/05 08:48:55;;;;;;;0.37;0.37;;;4.40;99.90;;;;;;5133887;27;20466;-83
2022/12/05 08:51:23;;;;;;;0.37;0.30;;;4.50;99.90;;;;;;5134181;27;20450;-81
2022/12/05 08:53:50;;;;;;;0.30;0.30;;;4.60;99.90;;;;;;5133937;27;20446;-82
2022/12/05 08:56:17;;;;;;;0.30;0.30;;;4.60;99.90;;;;;;5134118;27;20832;-82
2022/12/05 08:58:44;;;;;;;0.63;0.63;;;4.70;99.90;;;;;;5134163;27;20559;-82
2022/12/05 09:01:13;;;;;;;1.23;0.47;;;4.80;99.90;;;;;;5133808;27;20965;-82
2022/12/05 09:03:41;;;;;;;0.37;0.37;;;4.90;99.90;;;;;;5133783;27;20785;-83
2022/12/05 09:06:10;;;;;;;1.23;0.40;;;5.00;99.90;;;;;;5134010;27;20462;-79
2022/12/05 09:08:39;;;;;;;1.37;0.40;;;4.90;99.90;;;;;;5133649;27;20482;-79
2022/12/05 09:11:07;;;;;;;0.40;0.40;;;5.10;99.90;;;;;;5134024;27;20455;-78
2022/12/05 09:13:34;;;;;;;0.70;0.60;;;5.00;99.90;;;;;;5134022;27;20446;-79
2022/12/05 09:16:06;;;;;;;0.93;0.67;;;5.10;99.90;;;;;;5133901;27;20463;-79
2022/12/05 09:18:32;;;;;;;0.30;0.30;;;5.20;99.90;;;;;;5134022;27;20435;-79
2022/12/05 09:21:05;;;;;;;0.50;0.40;;;5.20;99.90;;;;;;5133608;27;20473;-79
2022/12/05 09:23:32;;;;;;;3.60;1.13;;;5.30;99.90;;;;;;5134580;27;20439;-79
2022/12/05 09:26:01;;;;;;;0.50;0.50;;;5.30;99.90;;;;;;5133790;27;20467;-79
2022/12/05 09:28:28;;;;;;;0.40;0.30;;;5.30;99.90;;;;;;5133765;27;20550;-79
2022/12/05 09:31:00;;;;;;;0.40;0.40;;;5.20;99.90;;;;;;5133881;27;20439;-79
2022/12/05 09:33:27;;;;;;;3.40;0.50;;;5.30;99.90;;;;;;5133839;27;20446;-79
2022/12/05 09:35:53;;;;;;;0.40;0.30;;;5.30;99.90;;;;;;5133698;27;20461;-79
2022/12/05 09:38:20;;;;;;;0.40;0.40;;;5.30;99.90;;;;;;5136253;27;20435;-79
2022/12/05 09:40:53;;;;;;;0.40;0.37;;;5.40;99.90;;;;;;5137444;27;20454;-79
2022/12/05 09:43:32;;;;;;;0.30;0.30;;;5.40;99.90;;;;;;5137491;27;20427;-79
2022/12/05 09:46:06;;;;;;;0.30;0.30;;;5.50;99.90;;;;;;5137077;27;20466;-79
2022/12/05 09:48:33;;;;;;;1.83;0.60;;;5.50;99.90;;;;;;5137330;27;20472;-79
2022/12/05 09:51:02;;;;;;;1.67;1.27;;;5.50;99.90;;;;;;5136954;27;20945;-79
2022/12/05 09:53:32;;;;;;;0.40;0.37;;;5.50;99.90;;;;;;5137239;27;20449;-79
2022/12/05 09:56:04;;;;;;;0.30;0.30;;;5.40;99.90;;;;;;5137995;27;20486;-79
2022/12/05 09:58:42;;;;;;;0.40;0.37;;;5.40;99.90;;;;;;5137204;27;20432;-79
2022/12/05 10:01:23;;;;;;;0.47;0.47;;;5.40;99.90;;;;;;5137105;27;20435;-79
2022/12/05 10:04:23;;;;;;;1.00;0.40;;;5.40;99.90;;;;;;5137099;27;20435;-79
2022/12/05 10:06:58;;;;;;;1.57;0.30;;;5.40;99.90;;;;;;5121141;27;20825;-79
2022/12/05 10:09:47;;;;;;;1.43;0.40;;;5.50;99.90;;;;;;5136896;27;20466;-79
2022/12/05 10:12:27;;;;;;;4.80;0.80;;;5.50;99.90;;;;;;5136932;27;20431;-79
2022/12/05 10:15:01;;;;;;;0.30;0.27;;;5.50;99.90;;;;;;5136480;27;21004;-79
2022/12/05 10:17:33;;;;;;;2.53;0.57;;;5.50;99.90;;;;;;5136811;27;20430;-79
2022/12/05 10:20:02;;;;;;;0.60;0.60;;;5.40;99.90;;;;;;5136817;27;20451;-79
2022/12/05 10:22:39;;;;;;;1.53;0.50;;;5.50;99.90;;;;;;5136737;27;20423;-79
2022/12/05 10:25:07;;;;;;;0.40;0.30;;;5.60;99.90;;;;;;5136613;27;20458;-79
2022/12/05 10:27:37;;;;;;;0.60;0.60;;;5.60;99.90;;;;;;5136519;27;20812;-79
2022/12/05 10:30:12;;;;;;;0.33;0.30;;;5.70;99.90;;;;;;5136518;27;20477;-79
2022/12/05 10:32:45;;;;;;;0.30;0.30;;;5.90;99.90;;;;;;5136268;27;20900;-79
2022/12/05 10:35:17;;;;;;;0.40;0.40;;;6.10;99.90;;;;;;5136452;27;20463;-79
2022/12/05 10:37:48;;;;;;;0.40;0.30;;;6.20;99.90;;;;;;5136471;27;20438;-79
2022/12/05 10:40:15;;;;;;;0.60;0.50;;;6.40;99.90;;;;;;5136975;27;20431;-79
2022/12/05 10:42:43;;;;;;;0.67;0.43;;;6.50;99.90;;;;;;5136920;27;20443;-79
2022/12/05 10:45:16;;;;;;;1.13;1.03;;;6.40;99.90;;;;;;5135868;27;20466;-79
2022/12/05 10:47:44;;;;;;;2.87;0.40;;;6.40;99.90;;;;;;5135702;27;20427;-79
2022/12/05 10:50:22;;;;;;;0.57;0.40;;;6.30;99.90;;;;;;5135700;27;20831;-79
2022/12/05 10:52:49;;;;;;;0.40;0.30;;;6.20;99.90;;;;;;5135820;27;20924;-79
2022/12/05 10:55:18;;;;;;;0.63;0.63;;;6.10;99.90;;;;;;5135663;27;20462;-79
2022/12/05 10:57:50;;;;;;;2.30;0.50;;;6.10;99.90;;;;;;5135626;27;20488;-79
2022/12/05 11:00:24;;;;;;;0.50;0.43;;;6.10;99.90;;;;;;5136480;27;20434;-79
2022/12/05 11:02:51;;;;;;;0.80;0.70;;;6.10;99.90;;;;;;5135609;27;20439;-79
2022/12/05 11:05:29;;;;;;;0.30;0.30;;;6.00;99.90;;;;;;5135772;27;20473;-79
2022/12/05 11:07:57;;;;;;;0.87;0.40;;;6.10;99.90;;;;;;5135823;27;20629;-79
2022/12/05 11:10:34;;;;;;;2.53;0.63;;;6.00;99.90;;;;;;5135710;27;20475;-79
2022/12/05 11:13:01;;;;;;;0.53;0.50;;;6.10;99.90;;;;;;5135665;27;20426;-79
2022/12/05 11:15:31;;;;;;;0.43;0.43;;;6.10;99.90;;;;;;5135602;27;20469;-79
2022/12/05 11:18:17;;;;;;;0.40;0.40;;;6.20;99.90;;;;;;5135593;27;20428;-79
2022/12/05 11:20:44;;;;;;;0.30;0.30;;;6.20;99.90;;;;;;5135253;27;20470;-79
2022/12/05 11:23:27;;;;;;;0.30;0.30;;;6.30;99.90;;;;;;5135145;27;20443;-79
2022/12/05 11:25:55;;;;;;;0.40;0.30;;;6.50;99.90;;;;;;5135422;27;20466;-79
2022/12/05 11:28:32;;;;;;;0.43;0.43;;;6.60;99.90;;;;;;5135309;27;20470;-79
2022/12/05 11:31:02;;;;;;;0.40;0.40;;;6.70;99.90;;;;;;5135374;27;20427;-79
2022/12/05 11:33:31;;;;;;;1.37;0.50;;;6.80;99.90;;;;;;5135326;27;20428;-79
2022/12/05 11:36:05;;;;;;;0.50;0.27;;;6.90;99.90;;;;;;5135190;27;20473;-79
2022/12/05 11:38:33;;;;;;;0.50;0.30;;;7.00;99.90;;;;;;5135268;27;20432;-79
2022/12/05 11:41:23;;;;;;;0.53;0.53;;;7.00;99.90;;;;;;5135166;27;20446;-79
2022/12/05 11:44:06;;;;;;;1.00;0.40;;;6.90;99.90;;;;;;5135135;27;20454;-79
2022/12/05 11:46:46;;;;;;;0.40;0.40;;;6.90;99.90;;;;;;5135050;27;20462;-79
2022/12/05 11:49:25;;;;;;;0.40;0.40;;;6.90;99.90;;;;;;5134946;27;20459;-78
2022/12/05 11:52:07;;;;;;;0.40;0.40;;;6.90;99.90;;;;;;5135063;27;20434;-78
2022/12/05 11:54:55;;;;;;;1.33;0.50;;;7.00;99.90;;;;;;5134927;27;20427;-78
2022/12/05 11:57:32;;;;;;;2.70;0.67;;;6.80;99.90;;;;;;5134901;27;20435;-77
2022/12/05 12:00:12;;;;;;;0.50;0.40;;;6.70;99.90;;;;;;5134212;27;20454;-78
2022/12/05 12:02:59;;;;;;;0.40;0.40;;;6.80;99.90;;;;;;5134766;27;20438;-78
2022/12/05 12:05:33;;;;;;;0.40;0.30;;;6.80;99.90;;;;;;5134704;27;20469;-78
2022/12/05 12:08:08;;;;;;;0.30;0.30;;;6.80;99.90;;;;;;5134777;27;20433;-78
2022/12/05 12:10:48;;;;;;;0.80;0.40;;;6.90;99.90;;;;;;5135207;27;20467;-78
2022/12/05 12:13:29;;;;;;;0.30;0.30;;;7.00;99.90;;;;;;5134381;27;20426;-78
2022/12/05 12:16:04;;;;;;;0.50;0.43;;;7.00;99.90;;;;;;5134297;27;20852;-78
2022/12/05 12:18:59;;;;;;;0.40;0.30;;;6.90;99.90;;;;;;5134582;27;20430;-78
2022/12/05 12:21:35;;;;;;;1.97;1.00;;;6.80;99.90;;;;;;5126406;27;20478;-79
2022/12/05 12:24:12;;;;;;;0.63;0.40;;;6.90;99.90;;;;;;5134523;27;20423;-78
2022/12/05 12:26:52;;;;;;;0.40;0.33;;;7.10;99.90;;;;;;5134444;27;20466;-78
2022/12/05 12:29:32;;;;;;;0.93;0.60;;;7.10;99.90;;;;;;5134414;27;20988;-79
2022/12/05 12:32:12;;;;;;;0.77;0.57;;;7.10;99.90;;;;;;5134507;27;20435;-78
2022/12/05 12:35:08;;;;;;;1.33;0.30;;;7.20;99.90;;;;;;5134329;27;20430;-78
2022/12/05 12:37:43;;;;;;;0.87;0.57;;;7.30;99.90;;;;;;5134400;27;20442;-78
2022/12/05 12:40:16;;;;;;;0.30;0.30;;;7.40;99.90;;;;;;5134845;27;20795;-78
2022/12/05 12:42:56;;;;;;;0.50;0.50;;;7.40;99.90;;;;;;5134361;27;20433;-78
2022/12/05 12:45:38;;;;;;;1.27;0.60;;;7.30;99.90;;;;;;5134275;27;20458;-78
2022/12/05 12:48:16;;;;;;;0.40;0.40;;;7.20;99.90;;;;;;5134309;27;20431;-78
2022/12/05 12:50:47;;;;;;;0.50;0.40;;;7.10;99.90;;;;;;5134242;27;20462;-78
2022/12/05 12:53:35;;;;;;;0.77;0.53;;;7.10;99.90;;;;;;5133981;27;20437;-78
2022/12/05 12:56:15;;;;;;;0.70;0.70;;;7.00;99.90;;;;;;5104593;27;20463;-78
2022/12/05 12:58:50;;;;;;;0.97;0.90;;;6.90;99.90;;;;;;5134236;27;20427;-78
2022/12/05 13:01:25;;;;;;;0.40;0.40;;;6.80;99.90;;;;;;5133856;27;20429;-78
2022/12/05 13:04:01;;;;;;;0.50;0.50;;;6.80;99.90;;;;;;5134182;27;20426;-78
2022/12/05 13:06:34;;;;;;;0.57;0.37;;;6.70;99.90;;;;;;5134083;27;20512;-79
2022/12/05 13:09:04;;;;;;;0.30;0.30;;;6.60;99.90;;;;;;5134042;27;20431;-78
2022/12/05 13:11:37;;;;;;;0.70;0.50;;;6.70;99.90;;;;;;5135056;27;20441;-78
2022/12/05 13:14:09;;;;;;;0.60;0.60;;;6.60;99.90;;;;;;5137771;27;20816;-79
2022/12/05 13:16:41;;;;;;;0.43;0.43;;;6.60;99.90;;;;;;5137617;27;21027;-78
2022/12/05 13:19:23;;;;;;;0.63;0.40;;;6.50;99.90;;;;;;5137900;27;20443;-78
2022/12/05 13:21:52;;;;;;;0.80;0.77;;;6.60;99.90;;;;;;5137506;27;20486;-79
2022/12/05 13:24:22;;;;;;;0.93;0.70;;;6.50;99.90;;;;;;5137803;27;20447;-79
2022/12/05 13:26:50;;;;;;;0.50;0.50;;;6.40;99.90;;;;;;5137769;27;20427;-78
2022/12/05 13:29:22;;;;;;;0.50;0.40;;;6.40;99.90;;;;;;5137708;27;20859;-78